Time;durP1;ratioP1;P1;durP2;ratioP2;P2;SDS_P1;SDS_P2;PMS_P1;PMS_P2;Temp;Humidity;BMP_temperature;BMP_pressure;BME280_temperature;BME280_humidity;BME280_pressure;Samples;Min_cycle;Max_cycle;Signal;HPM_P1;HPM_P2
2021/11/05 00:01:19;;;;;;;52.45;30.65;;;;;;;10.96;100.00;101402.48;1735219;82;21138;-44
2021/11/05 00:03:48;;;;;;;45.75;28.27;;;;;;;10.96;100.00;101390.83;1735288;82;20928;-44
2021/11/05 00:06:14;;;;;;;53.98;31.35;;;;;;;10.96;100.00;101390.83;1735244;82;21011;-44
2021/11/05 00:08:41;;;;;;;45.92;28.62;;;;;;;10.98;100.00;101395.56;1735044;82;21188;-46
2021/11/05 00:11:08;;;;;;;57.85;30.57;;;;;;;10.99;100.00;101389.51;1735227;82;21506;-44
2021/11/05 00:13:34;;;;;;;50.50;29.02;;;;;;;10.99;100.00;101387.80;1735167;82;21840;-44
2021/11/05 00:16:01;;;;;;;55.48;29.75;;;;;;;11.02;100.00;101390.81;1735228;82;21569;-44
2021/11/05 00:18:28;;;;;;;47.85;28.87;;;;;;;11.02;100.00;101391.66;1735258;82;21534;-45
2021/11/05 00:20:54;;;;;;;46.70;29.87;;;;;;;11.03;100.00;101391.23;1735040;82;21416;-44
2021/11/05 00:23:21;;;;;;;47.65;28.65;;;;;;;11.03;100.00;101383.47;1735244;82;21525;-44
2021/11/05 00:25:47;;;;;;;49.50;28.45;;;;;;;11.04;100.00;101382.59;1735077;81;22365;-44
2021/11/05 00:28:13;;;;;;;51.45;28.83;;;;;;;11.04;100.00;101379.55;1735074;82;21554;-45
2021/11/05 00:30:41;;;;;;;43.08;28.23;;;;;;;11.06;100.00;101375.67;1735215;82;21032;-44
2021/11/05 00:33:08;;;;;;;48.40;27.75;;;;;;;11.07;100.00;101372.21;1735080;82;20948;-44
2021/11/05 00:35:34;;;;;;;49.33;29.65;;;;;;;11.07;100.00;101374.35;1735260;81;20906;-44
2021/11/05 00:38:01;;;;;;;51.68;29.57;;;;;;;11.08;100.00;101367.45;1735527;82;21137;-44
2021/11/05 00:40:29;;;;;;;44.70;28.25;;;;;;;11.09;100.00;101364.41;1735005;82;21103;-44
2021/11/05 00:42:56;;;;;;;50.75;28.80;;;;;;;11.10;100.00;101370.89;1735535;82;21062;-44
2021/11/05 00:45:22;;;;;;;46.08;27.90;;;;;;;11.11;100.00;101366.14;1735117;81;20909;-44
2021/11/05 00:47:49;;;;;;;53.90;29.37;;;;;;;11.13;100.00;101370.88;1735481;82;20999;-45
2021/11/05 00:50:15;;;;;;;51.23;28.83;;;;;;;11.14;100.00;101375.19;1735193;82;21103;-44
2021/11/05 00:52:42;;;;;;;47.93;29.60;;;;;;;11.16;100.00;101380.38;1735014;82;21019;-45
2021/11/05 00:55:08;;;;;;;47.10;27.55;;;;;;;11.17;100.00;101377.75;1735224;81;20968;-45
2021/11/05 00:57:35;;;;;;;48.80;26.70;;;;;;;11.18;100.00;101371.70;1735384;82;21491;-44
2021/11/05 01:00:08;;;;;;;41.68;25.37;;;;;;;11.19;100.00;101380.34;1739935;81;21509;-44
2021/11/05 01:02:36;;;;;;;44.90;26.85;;;;;;;11.19;100.00;101378.60;1749109;81;20954;-44
2021/11/05 01:05:03;;;;;;;41.77;26.87;;;;;;;11.20;100.00;101377.73;1749036;82;21535;-45
2021/11/05 01:07:31;;;;;;;51.08;26.37;;;;;;;11.20;100.00;101375.14;1749005;81;20936;-44
2021/11/05 01:09:58;;;;;;;48.05;25.45;;;;;;;11.23;100.00;101363.03;1749211;82;20929;-44
2021/11/05 01:12:24;;;;;;;50.95;25.92;;;;;;;11.23;100.00;101355.25;1749466;82;20939;-44
2021/11/05 01:14:50;;;;;;;50.12;24.52;;;;;;;11.24;100.00;101356.97;1749173;82;21129;-45
2021/11/05 01:17:17;;;;;;;53.92;24.25;;;;;;;11.24;100.00;101348.78;1749394;82;20944;-45
2021/11/05 01:19:43;;;;;;;42.95;23.77;;;;;;;11.27;100.00;101351.34;1749090;82;20987;-45
2021/11/05 01:22:10;;;;;;;37.80;23.80;;;;;;;11.30;100.00;101349.18;1749605;82;20991;-44
2021/11/05 01:24:37;;;;;;;39.80;24.60;;;;;;;11.29;100.00;101343.12;1749267;82;20932;-44
2021/11/05 01:27:05;;;;;;;40.85;24.63;;;;;;;11.31;100.00;101337.94;1721926;82;21427;-45
2021/11/05 01:29:31;;;;;;;41.68;23.52;;;;;;;11.32;100.00;101338.36;1749206;82;21486;-44
2021/11/05 01:31:59;;;;;;;40.67;22.27;;;;;;;11.32;100.00;101343.55;1749478;82;21538;-45
2021/11/05 01:34:26;;;;;;;43.02;23.27;;;;;;;11.33;100.00;101351.30;1749188;82;21450;-45
2021/11/05 01:36:52;;;;;;;34.43;22.58;;;;;;;11.34;100.00;101345.69;1749341;82;21434;-44
2021/11/05 01:39:19;;;;;;;32.98;20.88;;;;;;;11.35;100.00;101347.41;1749355;82;21211;-44
2021/11/05 01:41:45;;;;;;;33.67;22.07;;;;;;;11.36;100.00;101351.27;1749334;82;21055;-44
2021/11/05 01:44:12;;;;;;;34.88;22.37;;;;;;;11.35;100.00;101348.70;1749509;82;21539;-43
2021/11/05 01:46:42;;;;;;;42.88;22.40;;;;;;;11.34;100.00;101351.72;1749175;82;21520;-44
2021/11/05 01:49:11;;;;;;;41.90;21.62;;;;;;;11.36;100.00;101354.31;1749194;81;21007;-44
2021/11/05 01:51:38;;;;;;;39.90;21.57;;;;;;;11.36;100.00;101371.16;1749176;82;21148;-45
2021/11/05 01:54:09;;;;;;;39.00;20.88;;;;;;;11.34;100.00;101367.27;1721360;82;20932;-45
2021/11/05 01:56:38;;;;;;;33.78;20.97;;;;;;;11.35;100.00;101357.77;1749105;81;21521;-44
2021/11/05 01:59:05;;;;;;;32.48;19.77;;;;;;;11.36;100.00;101351.72;1749276;82;20933;-44
2021/11/05 02:01:31;;;;;;;37.38;19.73;;;;;;;11.36;100.00;101346.53;1738024;81;20947;-45
2021/11/05 02:03:58;;;;;;;36.30;21.82;;;;;;;11.36;100.00;101343.94;1735346;82;21118;-44
2021/11/05 02:06:25;;;;;;;35.48;20.70;;;;;;;11.36;100.00;101340.89;1735135;81;20957;-44
2021/11/05 02:08:53;;;;;;;31.62;20.62;;;;;;;11.37;100.00;101337.88;1735354;82;20914;-45
2021/11/05 02:11:22;;;;;;;34.15;19.98;;;;;;;11.37;100.00;101327.52;1735320;81;20940;-45
2021/11/05 02:13:48;;;;;;;34.67;21.25;;;;;;;11.40;100.00;101333.13;1735371;82;20913;-44
2021/11/05 02:16:15;;;;;;;38.20;20.08;;;;;;;11.38;100.00;101330.53;1735617;81;21207;-45
2021/11/05 02:18:43;;;;;;;34.70;21.20;;;;;;;11.38;100.00;101332.28;1709122;82;21103;-44
2021/11/05 02:21:18;;;;;;;31.05;19.27;;;;;;;11.36;100.00;101326.64;1735406;82;21003;-46
2021/11/05 02:23:45;;;;;;;33.83;19.75;;;;;;;11.37;100.00;101328.81;1735219;82;20956;-46
2021/11/05 02:26:11;;;;;;;35.55;20.60;;;;;;;11.37;100.00;101330.11;1735599;82;20988;-44
2021/11/05 02:28:38;;;;;;;29.48;19.20;;;;;;;11.37;100.00;101343.06;1735098;82;21986;-44
2021/11/05 02:31:07;;;;;;;36.77;19.73;;;;;;;11.35;100.00;101348.25;1735339;82;21560;-45
2021/11/05 02:33:34;;;;;;;41.55;19.27;;;;;;;11.37;100.00;101349.55;1735266;81;20980;-46
2021/11/05 02:36:00;;;;;;;33.83;19.77;;;;;;;11.38;100.00;101339.60;1735216;82;20933;-47
2021/11/05 02:38:27;;;;;;;29.32;19.00;;;;;;;11.40;100.00;101346.09;1735251;82;21035;-47
2021/11/05 02:40:53;;;;;;;29.67;19.32;;;;;;;11.41;100.00;101347.35;1735241;82;21085;-45
2021/11/05 02:43:19;;;;;;;33.67;19.20;;;;;;;11.43;100.00;101334.39;1735338;82;20985;-46
2021/11/05 02:45:48;;;;;;;51.10;18.70;;;;;;;11.43;100.00;101346.91;1735185;82;21041;-46
2021/11/05 02:48:15;;;;;;;32.33;19.25;;;;;;;11.43;100.00;101353.38;1735444;82;20997;-45
2021/11/05 02:50:43;;;;;;;35.15;19.05;;;;;;;11.45;100.00;101355.52;1714289;82;20960;-46
2021/11/05 02:53:10;;;;;;;26.80;18.55;;;;;;;11.47;100.00;101351.19;1735486;82;21114;-45
2021/11/05 02:55:36;;;;;;;33.90;19.67;;;;;;;11.49;100.00;101353.36;1735229;82;21020;-46
2021/11/05 02:58:03;;;;;;;33.60;19.57;;;;;;;11.50;100.00;101349.02;1735687;82;20984;-45
2021/11/05 03:00:30;;;;;;;35.75;18.98;;;;;;;11.51;100.00;101344.25;1738776;81;21306;-46
2021/11/05 03:02:56;;;;;;;36.80;18.80;;;;;;;11.52;100.00;101351.61;1721520;82;21597;-45
2021/11/05 03:05:23;;;;;;;28.90;18.62;;;;;;;11.53;100.00;101354.17;1749315;82;21511;-46
2021/11/05 03:07:49;;;;;;;28.75;18.45;;;;;;;11.54;100.00;101345.97;1749237;82;21019;-45
2021/11/05 03:10:16;;;;;;;35.75;18.75;;;;;;;11.55;100.00;101348.53;1749182;82;20964;-45
2021/11/05 03:12:44;;;;;;;37.63;17.55;;;;;;;11.56;100.00;101346.82;1749142;80;20983;-45
2021/11/05 03:15:11;;;;;;;37.95;18.00;;;;;;;11.57;100.00;101348.08;1749407;82;21557;-45
2021/11/05 03:17:39;;;;;;;48.58;19.07;;;;;;;11.57;100.00;101344.20;1749191;82;21800;-45
2021/11/05 03:20:09;;;;;;;44.93;18.27;;;;;;;11.58;100.00;101345.07;1748940;82;21023;-45
2021/11/05 03:22:37;;;;;;;27.77;17.10;;;;;;;11.60;100.00;101346.76;1749201;82;20991;-45
2021/11/05 03:25:06;;;;;;;31.52;17.55;;;;;;;11.62;100.00;101346.34;1749118;82;21056;-45
2021/11/05 03:27:33;;;;;;;43.20;17.80;;;;;;;11.63;100.00;101342.00;1749353;82;20932;-45
2021/11/05 03:30:00;;;;;;;27.25;17.65;;;;;;;11.64;100.00;101352.79;1749376;82;21120;-46
2021/11/05 03:32:27;;;;;;;31.48;15.72;;;;;;;11.64;100.00;101346.30;1749063;82;20929;-45
2021/11/05 03:34:53;;;;;;;34.85;17.23;;;;;;;11.65;100.00;101342.84;1749406;81;20909;-45
2021/11/05 03:37:20;;;;;;;36.45;17.27;;;;;;;11.65;100.00;101344.14;1749242;82;20983;-45
2021/11/05 03:39:46;;;;;;;37.45;16.95;;;;;;;11.67;100.00;101341.09;1749546;82;21019;-45
2021/11/05 03:42:13;;;;;;;31.62;16.85;;;;;;;11.68;100.00;101331.14;1749103;82;21053;-45
2021/11/05 03:44:40;;;;;;;32.28;16.35;;;;;;;11.69;100.00;101326.38;1749014;82;21006;-45
2021/11/05 03:47:06;;;;;;;29.98;15.70;;;;;;;11.70;100.00;101321.61;1749299;82;21541;-45
2021/11/05 03:49:33;;;;;;;33.42;16.20;;;;;;;11.71;100.00;101327.22;1749241;82;21550;-47
2021/11/05 03:51:59;;;;;;;32.08;16.10;;;;;;;11.71;100.00;101310.81;1749370;81;20897;-46
2021/11/05 03:54:26;;;;;;;35.15;16.55;;;;;;;11.71;100.00;101320.73;1749150;81;21191;-45
2021/11/05 03:56:52;;;;;;;37.95;15.95;;;;;;;11.71;100.00;101315.55;1749379;82;21489;-46
2021/11/05 03:59:19;;;;;;;33.90;16.35;;;;;;;11.71;100.00;101313.41;1749154;82;21485;-46
2021/11/05 04:01:46;;;;;;;28.50;15.85;;;;;;;11.72;100.00;101311.23;1749205;82;21579;-46
2021/11/05 04:04:13;;;;;;;25.92;14.45;;;;;;;11.73;100.00;101309.91;1749280;82;21548;-45
2021/11/05 04:06:40;;;;;;;35.40;15.00;;;;;;;11.72;100.00;101317.27;1749194;82;21977;-45
2021/11/05 04:09:07;;;;;;;32.88;15.65;;;;;;;11.73;100.00;101320.28;1749122;82;20940;-45
2021/11/05 04:11:33;;;;;;;37.30;16.65;;;;;;;11.74;100.00;101314.22;1749306;82;20940;-45
2021/11/05 04:14:01;;;;;;;33.65;15.60;;;;;;;11.77;100.00;101318.52;1749218;82;21015;-48
2021/11/05 04:16:28;;;;;;;30.72;15.43;;;;;;;11.77;100.00;101315.51;1748933;82;21536;-45
2021/11/05 04:18:54;;;;;;;39.80;17.27;;;;;;;11.80;100.00;101306.82;1749078;81;21751;-45
2021/11/05 04:21:22;;;;;;;34.53;17.20;;;;;;;11.81;100.00;101312.88;1749118;82;21581;-44
2021/11/05 04:23:48;;;;;;;49.40;16.23;;;;;;;11.82;100.00;101305.52;1749448;82;21197;-46
2021/11/05 04:26:15;;;;;;;38.78;16.90;;;;;;;11.83;100.00;101304.64;1749092;82;21071;-45
2021/11/05 04:28:42;;;;;;;32.50;17.07;;;;;;;11.82;100.00;101298.58;1749114;82;20948;-45
2021/11/05 04:31:08;;;;;;;33.65;16.77;;;;;;;11.84;100.00;101305.06;1749130;82;20936;-45
2021/11/05 04:33:35;;;;;;;28.77;15.83;;;;;;;11.85;100.00;101293.36;1749106;82;20984;-44
2021/11/05 04:36:02;;;;;;;29.48;15.98;;;;;;;11.87;100.00;101295.95;1749452;82;20987;-46
2021/11/05 04:38:29;;;;;;;33.08;18.02;;;;;;;11.89;100.00;101296.79;1749041;82;20936;-44
2021/11/05 04:40:55;;;;;;;34.38;17.20;;;;;;;11.89;100.00;101284.70;1749235;82;20971;-44
2021/11/05 04:43:22;;;;;;;34.83;17.32;;;;;;;11.91;100.00;101291.14;1749565;82;21142;-45
2021/11/05 04:45:48;;;;;;;33.90;17.17;;;;;;;11.91;100.00;101295.03;1749062;82;21110;-45
2021/11/05 04:48:15;;;;;;;36.98;18.15;;;;;;;11.93;100.00;101291.98;1749248;82;20987;-46
2021/11/05 04:50:42;;;;;;;37.50;18.10;;;;;;;11.93;100.00;101292.86;1749136;82;20968;-46
2021/11/05 04:53:08;;;;;;;37.33;17.02;;;;;;;11.95;100.00;101291.53;1749241;82;20944;-45
2021/11/05 04:55:35;;;;;;;35.30;16.42;;;;;;;11.96;100.00;101304.92;1749359;82;21149;-45
2021/11/05 04:58:02;;;;;;;23.20;15.80;;;;;;;11.96;100.00;101301.03;1749152;82;21011;-43
2021/11/05 05:00:29;;;;;;;28.52;17.32;;;;;;;11.95;100.00;101303.20;1749125;82;21003;-47
2021/11/05 05:02:56;;;;;;;43.45;17.55;;;;;;;11.96;100.00;101300.19;1714457;82;20972;-45
2021/11/05 05:05:24;;;;;;;31.48;17.62;;;;;;;11.98;100.00;101307.06;1735232;82;21581;-44
2021/11/05 05:07:50;;;;;;;25.97;16.75;;;;;;;11.99;100.00;101302.75;1735097;82;21085;-45
2021/11/05 05:10:17;;;;;;;39.35;17.12;;;;;;;12.02;100.00;101310.10;1735045;81;20968;-45
2021/11/05 05:12:43;;;;;;;39.83;17.73;;;;;;;12.04;100.00;101308.77;1735014;81;21490;-45
2021/11/05 05:17:08;;;;;;;43.70;18.60;;;;;;;12.09;100.00;101319.11;1797627;79;22717;-45
2021/11/05 05:19:36;;;;;;;38.78;17.77;;;;;;;12.02;100.00;101325.67;1757302;81;21536;-45
2021/11/05 05:22:03;;;;;;;58.60;19.27;;;;;;;12.06;100.00;101326.05;1757421;81;21137;-44
2021/11/05 05:24:30;;;;;;;55.30;17.10;;;;;;;12.09;100.00;101325.14;1757330;81;21589;-44
2021/11/05 05:26:56;;;;;;;29.50;16.55;;;;;;;12.10;100.00;101325.56;1757719;81;21485;-44
2021/11/05 05:29:22;;;;;;;34.33;17.42;;;;;;;12.12;100.00;101329.45;1757380;81;21090;-45
2021/11/05 05:31:49;;;;;;;51.35;16.77;;;;;;;12.14;100.00;101335.48;1757644;81;20885;-45
2021/11/05 05:34:16;;;;;;;38.10;16.12;;;;;;;12.17;100.00;101336.32;1757373;80;21178;-45
2021/11/05 05:36:43;;;;;;;33.95;16.97;;;;;;;12.21;100.00;101348.80;1757371;81;20991;-46
2021/11/05 05:39:10;;;;;;;28.40;16.30;;;;;;;12.24;100.00;101353.11;1757302;81;21241;-46
2021/11/05 05:41:37;;;;;;;30.52;15.65;;;;;;;12.25;100.00;101349.22;1757450;81;20904;-46
2021/11/05 05:44:04;;;;;;;26.17;15.45;;;;;;;12.28;100.00;101359.56;1757348;81;20893;-45
2021/11/05 05:46:31;;;;;;;18.27;14.28;;;;;;;12.32;100.00;101361.67;1689721;82;21853;-44
2021/11/05 05:48:58;;;;;;;19.48;15.00;;;;;;;12.35;100.00;101357.31;1748913;81;20963;-46
2021/11/05 05:51:24;;;;;;;15.32;13.20;;;;;;;12.38;100.00;101362.92;1744049;81;21572;-44
2021/11/05 05:53:51;;;;;;;20.45;13.62;;;;;;;12.42;100.00;101362.42;1749078;82;21000;-44
2021/11/05 05:56:17;;;;;;;19.23;14.05;;;;;;;12.47;100.00;101361.50;1749122;82;20972;-45
2021/11/05 05:58:44;;;;;;;20.00;14.45;;;;;;;12.50;100.00;101364.06;1744240;81;20999;-45
2021/11/05 06:01:10;;;;;;;20.37;14.70;;;;;;;12.55;100.00;101357.95;1748984;82;20968;-45
2021/11/05 06:03:37;;;;;;;21.30;14.53;;;;;;;12.58;100.00;101357.48;1748991;81;21712;-45
2021/11/05 06:06:04;;;;;;;21.73;15.13;;;;;;;12.60;100.00;101357.02;1719418;82;21541;-44
2021/11/05 06:08:31;;;;;;;18.67;13.95;;;;;;;12.65;100.00;101362.16;1719989;82;21533;-46
2021/11/05 06:10:57;;;;;;;20.40;13.93;;;;;;;12.66;100.00;101370.38;1749062;81;21098;-44
2021/11/05 06:13:24;;;;;;;17.15;13.00;;;;;;;12.68;100.00;101372.51;1749086;82;21027;-45
2021/11/05 06:15:52;;;;;;;21.37;13.53;;;;;;;12.70;100.00;101363.38;1749408;82;20999;-45
2021/11/05 06:18:18;;;;;;;15.72;12.30;;;;;;;12.73;100.00;101355.55;1749806;82;20948;-45
2021/11/05 06:20:45;;;;;;;17.82;13.35;;;;;;;12.76;100.00;101356.83;1722084;82;20940;-45
2021/11/05 06:23:11;;;;;;;20.32;12.70;;;;;;;12.78;100.00;101357.21;1749812;82;21802;-45
2021/11/05 06:25:38;;;;;;;17.77;13.48;;;;;;;12.83;100.00;101368.85;1749722;82;21510;-45
2021/11/05 06:28:05;;;;;;;16.10;13.40;;;;;;;12.88;100.00;101362.27;1749205;81;20987;-44
2021/11/05 06:30:31;;;;;;;15.88;12.95;;;;;;;12.93;100.00;101367.83;1749275;80;20984;-45
2021/11/05 06:32:59;;;;;;;21.02;12.75;;;;;;;13.00;100.00;101364.72;1749145;82;20889;-46
2021/11/05 06:35:28;;;;;;;18.87;12.68;;;;;;;13.06;100.00;101356.83;1749393;82;21811;-46
2021/11/05 06:37:56;;;;;;;19.77;12.98;;;;;;;13.14;100.00;101359.78;1749119;82;20924;-45
2021/11/05 07:20:21;;;;;;;25.82;12.37;;;;;;;13.53;98.02;101355.31;1870575;76;22610;-44
2021/11/05 07:22:48;;;;;;;15.53;12.68;;;;;;;13.56;97.48;101363.06;1826777;78;20916;-44
2021/11/05 07:25:15;;;;;;;19.05;13.10;;;;;;;13.61;97.31;101358.63;1826758;78;21116;-44
2021/11/05 07:27:42;;;;;;;18.32;11.97;;;;;;;13.69;97.26;101352.84;1826678;78;20924;-45
2021/11/05 07:53:33;;;;;;;16.70;12.07;;;;;;;14.20;94.39;101377.98;1785636;80;22854;-44
2021/11/05 07:56:00;;;;;;;15.95;11.93;;;;;;;14.26;93.95;101384.79;1782591;80;20996;-44
2021/11/05 07:58:26;;;;;;;16.65;11.80;;;;;;;14.30;93.63;101381.27;1782533;80;21141;-44
2021/11/05 08:00:53;;;;;;;15.30;12.25;;;;;;;14.29;93.37;101381.28;1782369;80;20880;-44
2021/11/05 08:03:21;;;;;;;20.68;13.50;;;;;;;14.31;93.14;101382.11;1782676;80;21512;-44
2021/11/05 08:05:49;;;;;;;16.73;13.55;;;;;;;14.32;93.44;101387.73;1782211;80;20978;-44
2021/11/05 08:08:16;;;;;;;21.30;13.58;;;;;;;14.35;93.58;101387.66;1782583;80;20943;-44
2021/11/05 08:10:44;;;;;;;19.07;12.93;;;;;;;14.39;93.19;101389.31;1782490;80;21529;-45
2021/11/05 08:13:11;;;;;;;18.98;13.20;;;;;;;14.41;92.91;101391.91;1782551;80;21520;-44
2021/11/05 08:15:37;;;;;;;17.30;13.22;;;;;;;14.43;92.69;101389.70;1756165;80;21583;-44
2021/11/05 08:18:04;;;;;;;16.37;12.40;;;;;;;14.51;92.83;101395.60;1782454;80;21465;-44
2021/11/05 08:20:30;;;;;;;20.85;14.73;;;;;;;14.58;92.67;101395.47;1782525;80;21020;-45
2021/11/05 08:22:57;;;;;;;26.62;16.32;;;;;;;14.64;92.47;101374.06;1782632;80;21663;-45
2021/11/05 08:25:25;;;;;;;23.30;16.25;;;;;;;14.64;91.97;101396.21;1782522;80;21524;-45
2021/11/05 08:27:52;;;;;;;17.75;14.18;;;;;;;14.65;91.93;101392.72;1782281;80;20955;-45
2021/11/05 08:30:22;;;;;;;19.92;13.85;;;;;;;14.69;92.00;101396.13;1782827;80;21034;-44
2021/11/05 08:32:50;;;;;;;19.27;14.68;;;;;;;14.68;91.42;101390.50;1782729;80;21014;-45
2021/11/05 08:35:17;;;;;;;21.93;15.13;;;;;;;14.69;91.82;101396.56;1782355;80;21135;-44
2021/11/05 08:37:44;;;;;;;25.90;13.90;;;;;;;14.73;91.82;101391.72;1782371;80;20983;-45
2021/11/05 08:40:11;;;;;;;15.48;12.43;;;;;;;14.77;91.42;101386.85;1782380;80;20940;-44
2021/11/05 08:42:39;;;;;;;20.20;12.23;;;;;;;14.82;91.15;101382.42;1749955;80;21037;-44
2021/11/05 08:45:07;;;;;;;17.27;12.33;;;;;;;14.90;91.02;101373.11;1737183;82;21500;-45
2021/11/05 08:47:37;;;;;;;16.75;12.90;;;;;;;15.00;90.91;101373.34;1737324;82;21069;-45
2021/11/05 08:50:10;;;;;;;27.40;14.40;;;;;;;15.17;89.90;101383.38;1736997;82;20907;-45
2021/11/05 08:52:38;;;;;;;19.98;12.95;;;;;;;15.41;89.38;101374.56;1702318;84;21043;-45
2021/11/05 08:55:08;;;;;;;13.55;11.38;;;;;;;15.71;87.66;101361.65;1710213;84;21462;-44
2021/11/05 08:57:36;;;;;;;19.10;13.70;;;;;;;15.94;86.32;101357.62;1710176;84;21510;-44
2021/11/05 09:00:07;;;;;;;21.33;13.55;;;;;;;16.12;85.65;101348.89;1710119;84;21199;-45
2021/11/05 09:02:34;;;;;;;28.25;13.78;;;;;;;16.24;84.41;101344.61;1710133;84;20936;-45
2021/11/05 09:05:00;;;;;;;23.12;13.58;;;;;;;16.39;84.63;101343.31;1710406;83;20964;-44
2021/11/05 09:07:28;;;;;;;17.35;13.05;;;;;;;16.61;82.72;101347.92;1710187;84;20964;-45
2021/11/05 09:09:55;;;;;;;19.30;12.13;;;;;;;16.60;82.36;101349.70;1710433;83;20936;-45
2021/11/05 09:12:22;;;;;;;45.12;14.70;;;;;;;16.59;82.71;101357.13;1710196;84;21149;-44
2021/11/05 09:14:48;;;;;;;16.80;11.73;;;;;;;16.69;82.33;101353.80;1710225;84;20913;-45
2021/11/05 09:17:16;;;;;;;16.77;12.55;;;;;;;16.87;81.51;101355.43;1710189;84;20944;-45
2021/11/05 09:19:43;;;;;;;15.80;12.25;;;;;;;16.99;81.04;101357.72;1710644;83;21040;-45
2021/11/05 09:22:10;;;;;;;18.62;13.45;;;;;;;16.98;80.25;101350.78;1710143;84;21012;-44
2021/11/05 09:24:38;;;;;;;20.02;12.95;;;;;;;17.01;79.97;101351.11;1710184;84;20968;-45
2021/11/05 09:27:05;;;;;;;15.23;11.93;;;;;;;17.07;80.10;101351.78;1710088;84;20941;-45
2021/11/05 09:29:31;;;;;;;18.48;12.58;;;;;;;17.09;79.36;101349.97;1683904;84;21056;-45
2021/11/05 09:31:58;;;;;;;37.93;16.70;;;;;;;17.08;79.49;101343.50;1710128;84;20999;-45
2021/11/05 09:34:25;;;;;;;44.75;15.85;;;;;;;17.11;80.13;101342.09;1710421;83;21043;-45
2021/11/05 09:36:51;;;;;;;31.25;13.40;;;;;;;17.20;79.16;101348.80;1710114;84;21164;-45
2021/11/05 09:39:18;;;;;;;32.83;13.62;;;;;;;17.22;79.90;101348.29;1710064;83;21530;-45
2021/11/05 09:41:44;;;;;;;33.95;13.90;;;;;;;17.35;79.24;101352.67;1710271;82;21446;-45
2021/11/05 09:44:10;;;;;;;31.90;14.80;;;;;;;17.41;78.70;101351.59;1683613;84;21687;-45
2021/11/05 09:46:37;;;;;;;23.73;13.40;;;;;;;17.36;78.37;101343.91;1710436;83;21620;-45
2021/11/05 09:49:04;;;;;;;35.45;14.80;;;;;;;17.31;78.39;101344.52;1710208;84;22084;-45
2021/11/05 09:51:31;;;;;;;23.42;14.13;;;;;;;17.30;78.40;101347.58;1710273;83;21604;-45
2021/11/05 09:54:02;;;;;;;26.55;13.08;;;;;;;17.30;78.12;101345.40;1705052;82;21689;-45
2021/11/05 09:56:30;;;;;;;28.30;15.23;;;;;;;17.26;78.58;101350.33;1736480;82;21097;-45
2021/11/05 09:58:58;;;;;;;28.45;15.58;;;;;;;17.31;78.73;101362.84;1736723;82;20978;-45
2021/11/05 10:01:26;;;;;;;38.67;15.68;;;;;;;17.31;78.32;101358.91;1736599;82;21170;-46
2021/11/05 10:03:53;;;;;;;25.30;14.65;;;;;;;17.30;78.72;101358.48;1736536;82;20951;-46
2021/11/05 10:06:22;;;;;;;38.92;14.33;;;;;;;17.32;78.99;101359.31;1736589;82;21006;-46
2021/11/05 10:08:53;;;;;;;38.85;14.85;;;;;;;17.32;78.63;101364.08;1708333;82;20959;-46
2021/11/05 10:11:26;;;;;;;29.12;14.98;;;;;;;17.32;79.05;101355.39;1736504;82;20978;-46
2021/11/05 10:13:55;;;;;;;35.83;15.80;;;;;;;17.27;78.96;101349.42;1736687;82;21102;-46
2021/11/05 10:16:24;;;;;;;33.88;16.42;;;;;;;16.98;79.27;101355.10;1706739;82;20943;-46
2021/11/05 10:19:06;;;;;;;31.45;14.98;;;;;;;16.66;80.16;101350.81;1736506;82;20978;-45
2021/11/05 10:21:41;;;;;;;42.10;16.62;;;;;;;16.38;81.51;101356.84;1736446;82;21532;-46
2021/11/05 10:24:13;;;;;;;26.23;14.00;;;;;;;16.13;83.06;101365.80;1737119;82;20991;-44
2021/11/05 10:26:39;;;;;;;25.10;15.30;;;;;;;16.02;83.84;101371.78;1736466;82;21072;-45
2021/11/05 10:29:07;;;;;;;26.65;16.77;;;;;;;15.93;84.73;101362.00;1736712;82;20908;-45
2021/11/05 10:31:34;;;;;;;29.80;17.02;;;;;;;15.86;85.28;101357.78;1736527;82;20994;-44
2021/11/05 10:34:01;;;;;;;23.62;16.20;;;;;;;15.85;85.64;101353.92;1736531;82;20990;-45
2021/11/05 10:36:28;;;;;;;25.35;16.15;;;;;;;15.86;86.02;101342.12;1707368;82;20951;-45
2021/11/05 10:38:58;;;;;;;21.60;15.13;;;;;;;15.91;86.05;101345.95;1707567;82;21153;-45
2021/11/05 10:41:26;;;;;;;27.20;16.87;;;;;;;15.96;86.06;101340.16;1736275;82;21113;-44
2021/11/05 10:44:00;;;;;;;29.82;16.42;;;;;;;16.03;85.85;101347.38;1707147;82;21010;-44
2021/11/05 10:46:38;;;;;;;27.98;16.93;;;;;;;16.08;85.83;101353.33;1707426;82;21031;-45
2021/11/05 10:49:09;;;;;;;26.57;16.27;;;;;;;16.16;85.75;101356.58;1736500;82;21058;-45
2021/11/05 10:51:36;;;;;;;32.48;15.45;;;;;;;16.19;85.33;101363.48;1707239;82;21109;-45
2021/11/05 10:54:03;;;;;;;26.70;15.50;;;;;;;16.19;85.23;101367.40;1736430;82;20990;-45
2021/11/05 10:56:33;;;;;;;25.80;15.55;;;;;;;16.18;84.99;101367.87;1736267;82;21038;-45
2021/11/05 10:59:06;;;;;;;32.80;17.75;;;;;;;16.16;85.24;101363.56;1736385;82;20928;-45
2021/11/05 11:01:38;;;;;;;34.65;16.10;;;;;;;16.19;85.37;101360.44;1736479;82;21020;-45
2021/11/05 11:04:08;;;;;;;29.90;16.20;;;;;;;16.24;85.32;101355.06;1707158;82;21024;-46
2021/11/05 11:06:46;;;;;;;23.85;15.63;;;;;;;16.27;85.03;101351.05;1736345;82;21002;-46
2021/11/05 11:09:19;;;;;;;30.68;16.80;;;;;;;16.28;85.16;101357.15;1736444;82;20920;-46
2021/11/05 11:11:50;;;;;;;42.62;19.10;;;;;;;16.24;84.83;101343.30;1736449;82;21472;-46
2021/11/05 11:14:31;;;;;;;24.02;17.50;;;;;;;16.10;85.20;101339.77;1707093;82;21603;-45
2021/11/05 11:17:00;;;;;;;36.83;18.50;;;;;;;16.05;85.61;101338.62;1707078;82;21277;-46
2021/11/05 11:19:31;;;;;;;32.70;17.65;;;;;;;16.07;85.99;101343.34;1707205;82;21535;-44
2021/11/05 11:22:06;;;;;;;35.58;16.05;;;;;;;16.15;85.97;101339.66;1736569;82;21437;-45
2021/11/05 11:24:37;;;;;;;33.13;16.62;;;;;;;16.26;85.59;101344.12;1736530;82;21688;-45
2021/11/05 11:27:06;;;;;;;25.62;18.07;;;;;;;16.35;85.26;101341.70;1736455;82;20962;-45
2021/11/05 11:29:35;;;;;;;33.73;18.07;;;;;;;16.38;84.64;101335.08;1707267;82;21571;-45
2021/11/05 11:32:04;;;;;;;32.83;19.05;;;;;;;16.41;84.70;101329.75;1736560;82;21508;-44
2021/11/05 11:34:32;;;;;;;33.33;17.77;;;;;;;16.47;84.38;101329.60;1736464;82;20954;-45
2021/11/05 11:37:00;;;;;;;43.35;17.23;;;;;;;16.45;84.28;101334.45;1707160;82;20971;-45
2021/11/05 11:39:31;;;;;;;38.38;19.45;;;;;;;16.43;84.37;101333.64;1736440;82;20994;-45
2021/11/05 11:42:04;;;;;;;37.75;18.82;;;;;;;16.38;84.28;101335.08;1736385;82;21150;-45
2021/11/05 11:44:34;;;;;;;24.00;18.07;;;;;;;16.24;84.48;101332.86;1736839;82;21003;-45
2021/11/05 11:47:07;;;;;;;24.40;17.80;;;;;;;16.12;85.00;101330.61;1736437;82;20959;-45
2021/11/05 11:49:48;;;;;;;26.52;16.70;;;;;;;16.01;85.78;101330.91;1736581;82;20986;-45
2021/11/05 11:52:23;;;;;;;43.20;17.27;;;;;;;15.91;86.44;101318.54;1736326;82;21524;-44
2021/11/05 11:54:54;;;;;;;37.60;18.02;;;;;;;15.84;86.90;101323.50;1736674;82;21126;-45
2021/11/05 11:57:27;;;;;;;45.67;20.88;;;;;;;15.80;87.24;101318.36;1736292;82;21004;-45
2021/11/05 12:00:17;;;;;;;41.70;21.00;;;;;;;15.75;87.51;101308.94;1736419;82;20912;-45
2021/11/05 12:02:50;;;;;;;34.35;19.80;;;;;;;15.73;87.74;101307.66;1736210;82;21007;-45
2021/11/05 12:05:31;;;;;;;34.65;19.55;;;;;;;15.71;87.99;101312.06;1736729;82;20997;-45
2021/11/05 12:08:20;;;;;;;44.20;18.57;;;;;;;15.68;88.25;101312.14;1736174;82;21910;-45
2021/11/05 12:11:10;;;;;;;27.35;17.57;;;;;;;15.65;88.37;101305.70;1736261;82;20978;-45
2021/11/05 12:13:43;;;;;;;28.73;19.40;;;;;;;15.63;88.54;101295.76;1736434;82;21500;-44